sensor_id;sensor_type;location;lat;lon;timestamp;pressure;altitude;pressure_sealevel;temperature;humidity
70198;BME280;57582;-34.876;138.628;2023-04-23T00:02:34;102624;;;19.36;55.36
70198;BME280;57582;-34.876;138.628;2023-04-23T00:05:34;102627;;;19.50;55.56
70198;BME280;57582;-34.876;138.628;2023-04-23T00:08:34;102625;;;19.52;55.36
70198;BME280;57582;-34.876;138.628;2023-04-23T00:11:34;102615;;;19.79;54.93
70198;BME280;57582;-34.876;138.628;2023-04-23T00:14:34;102617;;;20.05;53.95
70198;BME280;57582;-34.876;138.628;2023-04-23T00:17:34;102618;;;20.28;53.61
70198;BME280;57582;-34.876;138.628;2023-04-23T00:20:34;102619;;;20.11;53.59
70198;BME280;57582;-34.876;138.628;2023-04-23T00:23:34;102605;;;20.28;53.89
70198;BME280;57582;-34.876;138.628;2023-04-23T00:26:34;102612;;;19.98;53.92
70198;BME280;57582;-34.876;138.628;2023-04-23T00:29:34;102604;;;20.05;53.98
70198;BME280;57582;-34.876;138.628;2023-04-23T00:32:34;102606;;;20.22;53.36
70198;BME280;57582;-34.876;138.628;2023-04-23T00:35:34;102605;;;20.51;52.59
70198;BME280;57582;-34.876;138.628;2023-04-23T00:38:34;102611;;;20.80;52.11
70198;BME280;57582;-34.876;138.628;2023-04-23T00:41:34;102609;;;21.08;51.05
70198;BME280;57582;-34.876;138.628;2023-04-23T00:44:34;102603;;;21.36;51.55
70198;BME280;57582;-34.876;138.628;2023-04-23T00:47:34;102610;;;20.96;52.24
70198;BME280;57582;-34.876;138.628;2023-04-23T00:50:34;102600;;;21.02;52.18
70198;BME280;57582;-34.876;138.628;2023-04-23T00:53:34;102600;;;21.36;50.70
70198;BME280;57582;-34.876;138.628;2023-04-23T00:56:34;102606;;;21.80;50.26
70198;BME280;57582;-34.876;138.628;2023-04-23T00:59:34;102600;;;22.17;49.32
70198;BME280;57582;-34.876;138.628;2023-04-23T01:02:34;102595;;;22.56;47.94
70198;BME280;57582;-34.876;138.628;2023-04-23T01:05:34;102595;;;22.17;48.53
70198;BME280;57582;-34.876;138.628;2023-04-23T01:08:34;102585;;;22.28;49.01
70198;BME280;57582;-34.876;138.628;2023-04-23T01:11:35;102589;;;22.64;48.40
70198;BME280;57582;-34.876;138.628;2023-04-23T01:14:35;102591;;;23.06;47.31
70198;BME280;57582;-34.876;138.628;2023-04-23T01:17:34;102588;;;23.53;45.88
70198;BME280;57582;-34.876;138.628;2023-04-23T01:20:34;102597;;;23.13;47.24
70198;BME280;57582;-34.876;138.628;2023-04-23T01:23:34;102590;;;23.37;46.03
70198;BME280;57582;-34.876;138.628;2023-04-23T01:26:34;102593;;;23.24;45.73
70198;BME280;57582;-34.876;138.628;2023-04-23T01:29:34;102590;;;22.89;45.83
70198;BME280;57582;-34.876;138.628;2023-04-23T01:32:34;102590;;;22.96;46.05
70198;BME280;57582;-34.876;138.628;2023-04-23T01:35:34;102582;;;23.02;46.08
70198;BME280;57582;-34.876;138.628;2023-04-23T01:38:35;102574;;;23.01;46.16
70198;BME280;57582;-34.876;138.628;2023-04-23T01:41:34;102572;;;23.24;45.41
70198;BME280;57582;-34.876;138.628;2023-04-23T01:44:34;102568;;;23.69;45.17
70198;BME280;57582;-34.876;138.628;2023-04-23T01:47:34;102561;;;23.91;43.99
70198;BME280;57582;-34.876;138.628;2023-04-23T01:50:34;102570;;;23.79;45.16
70198;BME280;57582;-34.876;138.628;2023-04-23T01:53:34;102559;;;23.69;43.98
70198;BME280;57582;-34.876;138.628;2023-04-23T01:56:34;102555;;;23.73;44.05
70198;BME280;57582;-34.876;138.628;2023-04-23T01:59:34;102546;;;24.05;43.74
70198;BME280;57582;-34.876;138.628;2023-04-23T02:02:34;102547;;;24.27;43.10
70198;BME280;57582;-34.876;138.628;2023-04-23T02:05:34;102546;;;24.43;41.91
70198;BME280;57582;-34.876;138.628;2023-04-23T02:08:34;102528;;;24.72;42.00
70198;BME280;57582;-34.876;138.628;2023-04-23T02:11:34;102535;;;24.82;41.16
70198;BME280;57582;-34.876;138.628;2023-04-23T02:14:35;102530;;;24.65;41.52
70198;BME280;57582;-34.876;138.628;2023-04-23T02:17:34;102527;;;24.99;40.32
70198;BME280;57582;-34.876;138.628;2023-04-23T02:20:34;102520;;;25.13;40.62
70198;BME280;57582;-34.876;138.628;2023-04-23T02:23:34;102524;;;24.96;39.95
70198;BME280;57582;-34.876;138.628;2023-04-23T02:26:34;102512;;;24.64;41.02
70198;BME280;57582;-34.876;138.628;2023-04-23T02:29:34;102524;;;24.56;41.02
70198;BME280;57582;-34.876;138.628;2023-04-23T02:32:34;102512;;;24.95;41.62
70198;BME280;57582;-34.876;138.628;2023-04-23T02:35:34;102500;;;25.43;40.68
70198;BME280;57582;-34.876;138.628;2023-04-23T02:38:34;102499;;;25.86;39.36
70198;BME280;57582;-34.876;138.628;2023-04-23T02:41:34;102487;;;25.89;39.92
70198;BME280;57582;-34.876;138.628;2023-04-23T02:44:34;102492;;;25.60;38.41
70198;BME280;57582;-34.876;138.628;2023-04-23T02:47:34;102485;;;25.22;40.06
70198;BME280;57582;-34.876;138.628;2023-04-23T02:50:35;102488;;;25.72;39.25
70198;BME280;57582;-34.876;138.628;2023-04-23T02:53:34;102482;;;25.79;38.24
70198;BME280;57582;-34.876;138.628;2023-04-23T02:56:34;102471;;;25.62;38.96
70198;BME280;57582;-34.876;138.628;2023-04-23T02:59:34;102465;;;26.05;37.33
70198;BME280;57582;-34.876;138.628;2023-04-23T03:02:35;102459;;;26.13;36.97
70198;BME280;57582;-34.876;138.628;2023-04-23T03:05:34;102455;;;25.84;37.60
70198;BME280;57582;-34.876;138.628;2023-04-23T03:08:34;102450;;;25.76;37.94
70198;BME280;57582;-34.876;138.628;2023-04-23T03:11:34;102449;;;25.61;39.46
70198;BME280;57582;-34.876;138.628;2023-04-23T03:14:35;102449;;;26.02;38.03
70198;BME280;57582;-34.876;138.628;2023-04-23T03:17:34;102435;;;26.38;36.50
70198;BME280;57582;-34.876;138.628;2023-04-23T03:20:34;102432;;;26.12;36.67
70198;BME280;57582;-34.876;138.628;2023-04-23T03:23:34;102423;;;25.90;36.92
70198;BME280;57582;-34.876;138.628;2023-04-23T03:26:35;102424;;;26.40;36.57
70198;BME280;57582;-34.876;138.628;2023-04-23T03:29:34;102416;;;26.09;35.70
70198;BME280;57582;-34.876;138.628;2023-04-23T03:32:35;102417;;;25.66;36.47
70198;BME280;57582;-34.876;138.628;2023-04-23T03:35:34;102413;;;25.81;35.83
70198;BME280;57582;-34.876;138.628;2023-04-23T03:38:35;102410;;;26.09;36.31
70198;BME280;57582;-34.876;138.628;2023-04-23T03:41:34;102398;;;26.61;35.68
70198;BME280;57582;-34.876;138.628;2023-04-23T03:44:34;102395;;;26.46;34.62
70198;BME280;57582;-34.876;138.628;2023-04-23T03:47:34;102403;;;26.31;35.73
70198;BME280;57582;-34.876;138.628;2023-04-23T03:50:35;102394;;;26.81;36.28
70198;BME280;57582;-34.876;138.628;2023-04-23T03:53:34;102386;;;27.13;36.94
70198;BME280;57582;-34.876;138.628;2023-04-23T03:56:34;102382;;;26.91;36.00
70198;BME280;57582;-34.876;138.628;2023-04-23T03:59:34;102367;;;27.16;33.97
70198;BME280;57582;-34.876;138.628;2023-04-23T04:02:35;102369;;;26.66;34.73
70198;BME280;57582;-34.876;138.628;2023-04-23T04:05:34;102367;;;27.11;35.24
70198;BME280;57582;-34.876;138.628;2023-04-23T04:08:34;102362;;;27.43;34.89
70198;BME280;57582;-34.876;138.628;2023-04-23T04:11:34;102367;;;27.21;36.92
70198;BME280;57582;-34.876;138.628;2023-04-23T04:14:35;102360;;;27.16;36.10
70198;BME280;57582;-34.876;138.628;2023-04-23T04:17:34;102356;;;27.33;34.68
70198;BME280;57582;-34.876;138.628;2023-04-23T04:20:34;102355;;;27.50;34.02
70198;BME280;57582;-34.876;138.628;2023-04-23T04:23:34;102351;;;27.78;33.88
70198;BME280;57582;-34.876;138.628;2023-04-23T04:26:35;102347;;;27.69;34.09
70198;BME280;57582;-34.876;138.628;2023-04-23T04:29:34;102350;;;27.02;35.20
70198;BME280;57582;-34.876;138.628;2023-04-23T04:32:34;102347;;;27.16;35.92
70198;BME280;57582;-34.876;138.628;2023-04-23T04:35:34;102335;;;27.32;34.92
70198;BME280;57582;-34.876;138.628;2023-04-23T04:38:35;102338;;;26.99;35.98
70198;BME280;57582;-34.876;138.628;2023-04-23T04:41:35;102334;;;26.93;35.22
70198;BME280;57582;-34.876;138.628;2023-04-23T04:44:34;102343;;;26.61;34.53
70198;BME280;57582;-34.876;138.628;2023-04-23T04:47:34;102340;;;25.90;34.96
70198;BME280;57582;-34.876;138.628;2023-04-23T04:50:35;102340;;;26.34;36.20
70198;BME280;57582;-34.876;138.628;2023-04-23T04:53:34;102340;;;26.26;36.13
70198;BME280;57582;-34.876;138.628;2023-04-23T04:56:34;102337;;;26.65;35.44
70198;BME280;57582;-34.876;138.628;2023-04-23T04:59:34;102330;;;26.73;35.48
70198;BME280;57582;-34.876;138.628;2023-04-23T05:02:35;102325;;;27.23;34.12
70198;BME280;57582;-34.876;138.628;2023-04-23T05:05:34;102326;;;27.68;34.17
70198;BME280;57582;-34.876;138.628;2023-04-23T05:08:34;102334;;;27.51;34.79
70198;BME280;57582;-34.876;138.628;2023-04-23T05:11:34;102325;;;27.77;34.32
70198;BME280;57582;-34.876;138.628;2023-04-23T05:14:35;102334;;;27.65;34.21
70198;BME280;57582;-34.876;138.628;2023-04-23T05:17:35;102338;;;27.77;34.33
70198;BME280;57582;-34.876;138.628;2023-04-23T05:20:34;102328;;;27.64;35.38
70198;BME280;57582;-34.876;138.628;2023-04-23T05:23:34;102328;;;27.57;34.77
70198;BME280;57582;-34.876;138.628;2023-04-23T05:26:35;102336;;;27.03;38.15
70198;BME280;57582;-34.876;138.628;2023-04-23T05:29:34;102325;;;27.41;38.12
70198;BME280;57582;-34.876;138.628;2023-04-23T05:32:34;102321;;;27.56;37.54
70198;BME280;57582;-34.876;138.628;2023-04-23T05:35:34;102321;;;27.85;37.53
70198;BME280;57582;-34.876;138.628;2023-04-23T05:38:35;102323;;;28.04;36.76
70198;BME280;57582;-34.876;138.628;2023-04-23T05:41:34;102313;;;28.22;36.27
70198;BME280;57582;-34.876;138.628;2023-04-23T05:44:34;102316;;;28.35;35.99
70198;BME280;57582;-34.876;138.628;2023-04-23T05:47:35;102319;;;28.45;35.72
70198;BME280;57582;-34.876;138.628;2023-04-23T05:50:35;102313;;;28.58;35.58
70198;BME280;57582;-34.876;138.628;2023-04-23T05:53:34;102310;;;28.69;35.32
70198;BME280;57582;-34.876;138.628;2023-04-23T05:56:34;102301;;;28.71;34.68
70198;BME280;57582;-34.876;138.628;2023-04-23T05:59:34;102306;;;28.54;34.95
70198;BME280;57582;-34.876;138.628;2023-04-23T06:02:35;102300;;;28.57;35.04
70198;BME280;57582;-34.876;138.628;2023-04-23T06:05:34;102304;;;28.54;35.02
70198;BME280;57582;-34.876;138.628;2023-04-23T06:08:34;102302;;;28.38;35.25
70198;BME280;57582;-34.876;138.628;2023-04-23T06:11:34;102301;;;28.38;35.16
70198;BME280;57582;-34.876;138.628;2023-04-23T06:14:35;102290;;;28.21;35.59
70198;BME280;57582;-34.876;138.628;2023-04-23T06:17:34;102294;;;28.15;35.66
70198;BME280;57582;-34.876;138.628;2023-04-23T06:20:34;102298;;;28.09;35.89
70198;BME280;57582;-34.876;138.628;2023-04-23T06:23:34;102295;;;28.12;36.31
70198;BME280;57582;-34.876;138.628;2023-04-23T06:26:35;102296;;;28.10;36.55
70198;BME280;57582;-34.876;138.628;2023-04-23T06:29:34;102289;;;28.01;36.23
70198;BME280;57582;-34.876;138.628;2023-04-23T06:32:34;102290;;;27.95;36.39
70198;BME280;57582;-34.876;138.628;2023-04-23T06:35:34;102287;;;27.95;36.34
70198;BME280;57582;-34.876;138.628;2023-04-23T06:38:35;102285;;;27.95;36.51
70198;BME280;57582;-34.876;138.628;2023-04-23T06:41:34;102286;;;27.87;36.72
70198;BME280;57582;-34.876;138.628;2023-04-23T06:44:34;102286;;;27.67;37.09
70198;BME280;57582;-34.876;138.628;2023-04-23T06:47:34;102280;;;27.55;37.39
70198;BME280;57582;-34.876;138.628;2023-04-23T06:50:35;102282;;;27.33;37.87
70198;BME280;57582;-34.876;138.628;2023-04-23T06:53:35;102288;;;27.24;38.13
70198;BME280;57582;-34.876;138.628;2023-04-23T06:56:34;102279;;;27.08;37.95
70198;BME280;57582;-34.876;138.628;2023-04-23T06:59:34;102274;;;26.89;38.30
70198;BME280;57582;-34.876;138.628;2023-04-23T07:02:35;102277;;;26.77;38.43
70198;BME280;57582;-34.876;138.628;2023-04-23T07:05:35;102280;;;26.54;38.70
70198;BME280;57582;-34.876;138.628;2023-04-23T07:08:34;102277;;;26.48;39.42
70198;BME280;57582;-34.876;138.628;2023-04-23T07:11:34;102288;;;26.31;39.71
70198;BME280;57582;-34.876;138.628;2023-04-23T07:14:35;102288;;;26.11;40.29
70198;BME280;57582;-34.876;138.628;2023-04-23T07:17:34;102278;;;26.04;40.37
70198;BME280;57582;-34.876;138.628;2023-04-23T07:20:34;102282;;;25.95;40.66
70198;BME280;57582;-34.876;138.628;2023-04-23T07:23:34;102286;;;26.00;40.78
70198;BME280;57582;-34.876;138.628;2023-04-23T07:26:35;102282;;;26.01;40.67
70198;BME280;57582;-34.876;138.628;2023-04-23T07:29:34;102275;;;25.97;40.54
70198;BME280;57582;-34.876;138.628;2023-04-23T07:32:34;102279;;;25.99;40.57
70198;BME280;57582;-34.876;138.628;2023-04-23T07:35:34;102272;;;26.02;40.77
70198;BME280;57582;-34.876;138.628;2023-04-23T07:38:35;102282;;;26.01;40.75
70198;BME280;57582;-34.876;138.628;2023-04-23T07:41:34;102272;;;25.95;40.87
70198;BME280;57582;-34.876;138.628;2023-04-23T07:44:34;102281;;;25.83;41.32
70198;BME280;57582;-34.876;138.628;2023-04-23T07:47:34;102282;;;25.80;41.27
70198;BME280;57582;-34.876;138.628;2023-04-23T07:50:35;102281;;;25.72;41.52
70198;BME280;57582;-34.876;138.628;2023-04-23T07:53:35;102293;;;25.71;41.58
70198;BME280;57582;-34.876;138.628;2023-04-23T07:56:35;102290;;;25.66;41.79
70198;BME280;57582;-34.876;138.628;2023-04-23T07:59:35;102283;;;25.49;42.43
70198;BME280;57582;-34.876;138.628;2023-04-23T08:02:35;102280;;;25.40;42.61
70198;BME280;57582;-34.876;138.628;2023-04-23T08:05:35;102284;;;25.39;42.49
70198;BME280;57582;-34.876;138.628;2023-04-23T08:08:35;102282;;;25.37;42.73
70198;BME280;57582;-34.876;138.628;2023-04-23T08:11:35;102285;;;25.37;42.92
70198;BME280;57582;-34.876;138.628;2023-04-23T08:14:35;102278;;;25.33;42.97
70198;BME280;57582;-34.876;138.628;2023-04-23T08:17:35;102277;;;25.24;43.19
70198;BME280;57582;-34.876;138.628;2023-04-23T08:20:35;102288;;;25.14;43.70
70198;BME280;57582;-34.876;138.628;2023-04-23T08:23:35;102284;;;25.11;43.82
70198;BME280;57582;-34.876;138.628;2023-04-23T08:26:35;102287;;;24.97;44.48
70198;BME280;57582;-34.876;138.628;2023-04-23T08:29:35;102291;;;24.88;44.53
70198;BME280;57582;-34.876;138.628;2023-04-23T08:32:35;102284;;;24.77;45.10
70198;BME280;57582;-34.876;138.628;2023-04-23T08:35:35;102289;;;24.67;44.89
70198;BME280;57582;-34.876;138.628;2023-04-23T08:38:35;102292;;;24.52;45.21
70198;BME280;57582;-34.876;138.628;2023-04-23T08:41:38;102285;;;24.54;45.29
70198;BME280;57582;-34.876;138.628;2023-04-23T08:44:35;102293;;;24.46;45.49
70198;BME280;57582;-34.876;138.628;2023-04-23T08:47:35;102298;;;24.36;45.83
70198;BME280;57582;-34.876;138.628;2023-04-23T08:50:36;102294;;;24.42;45.81
70198;BME280;57582;-34.876;138.628;2023-04-23T08:53:35;102292;;;24.36;45.83
70198;BME280;57582;-34.876;138.628;2023-04-23T08:56:35;102306;;;24.36;45.92
70198;BME280;57582;-34.876;138.628;2023-04-23T08:59:35;102298;;;24.36;45.88
70198;BME280;57582;-34.876;138.628;2023-04-23T09:02:36;102306;;;24.31;46.04
70198;BME280;57582;-34.876;138.628;2023-04-23T09:05:35;102308;;;24.25;46.10
70198;BME280;57582;-34.876;138.628;2023-04-23T09:08:35;102311;;;24.17;46.36
70198;BME280;57582;-34.876;138.628;2023-04-23T09:11:35;102314;;;24.10;46.50
70198;BME280;57582;-34.876;138.628;2023-04-23T09:14:35;102313;;;23.92;47.09
70198;BME280;57582;-34.876;138.628;2023-04-23T09:17:35;102313;;;23.92;47.03
70198;BME280;57582;-34.876;138.628;2023-04-23T09:20:35;102322;;;23.81;47.29
70198;BME280;57582;-34.876;138.628;2023-04-23T09:23:37;102319;;;23.73;47.46
70198;BME280;57582;-34.876;138.628;2023-04-23T09:26:35;102315;;;23.64;47.75
70198;BME280;57582;-34.876;138.628;2023-04-23T09:29:35;102313;;;23.56;48.03
70198;BME280;57582;-34.876;138.628;2023-04-23T09:32:36;102317;;;23.62;47.21
70198;BME280;57582;-34.876;138.628;2023-04-23T09:35:35;102316;;;23.65;45.99
70198;BME280;57582;-34.876;138.628;2023-04-23T09:38:35;102318;;;23.69;45.34
70198;BME280;57582;-34.876;138.628;2023-04-23T09:41:35;102318;;;23.66;45.05
70198;BME280;57582;-34.876;138.628;2023-04-23T09:44:35;102320;;;23.69;45.19
70198;BME280;57582;-34.876;138.628;2023-04-23T09:47:38;102324;;;23.79;44.49
70198;BME280;57582;-34.876;138.628;2023-04-23T09:50:36;102324;;;23.73;44.08
70198;BME280;57582;-34.876;138.628;2023-04-23T09:53:42;102324;;;23.79;44.41
70198;BME280;57582;-34.876;138.628;2023-04-23T09:56:35;102321;;;23.76;44.23
70198;BME280;57582;-34.876;138.628;2023-04-23T09:59:35;102328;;;23.74;43.85
70198;BME280;57582;-34.876;138.628;2023-04-23T10:02:36;102324;;;23.37;42.21
70198;BME280;57582;-34.876;138.628;2023-04-23T10:05:38;102333;;;22.99;43.82
70198;BME280;57582;-34.876;138.628;2023-04-23T10:08:35;102330;;;22.68;43.35
70198;BME280;57582;-34.876;138.628;2023-04-23T10:11:35;102331;;;22.25;43.80
70198;BME280;57582;-34.876;138.628;2023-04-23T10:14:35;102331;;;21.81;44.82
70198;BME280;57582;-34.876;138.628;2023-04-23T10:17:35;102328;;;21.40;45.35
70198;BME280;57582;-34.876;138.628;2023-04-23T10:20:35;102332;;;21.16;45.92
70198;BME280;57582;-34.876;138.628;2023-04-23T10:23:35;102329;;;20.88;46.25
70198;BME280;57582;-34.876;138.628;2023-04-23T10:26:37;102338;;;20.80;46.34
70198;BME280;57582;-34.876;138.628;2023-04-23T10:29:35;102332;;;20.90;46.44
70198;BME280;57582;-34.876;138.628;2023-04-23T10:32:35;102333;;;21.25;46.21
70198;BME280;57582;-34.876;138.628;2023-04-23T10:35:35;102336;;;21.58;45.63
70198;BME280;57582;-34.876;138.628;2023-04-23T10:38:35;102342;;;21.89;45.17
70198;BME280;57582;-34.876;138.628;2023-04-23T10:41:37;102341;;;22.16;44.24
70198;BME280;57582;-34.876;138.628;2023-04-23T10:44:36;102343;;;22.34;43.88
70198;BME280;57582;-34.876;138.628;2023-04-23T10:47:35;102338;;;22.46;43.95
70198;BME280;57582;-34.876;138.628;2023-04-23T10:50:35;102334;;;22.48;43.64
70198;BME280;57582;-34.876;138.628;2023-04-23T10:53:35;102333;;;22.54;43.78
70198;BME280;57582;-34.876;138.628;2023-04-23T10:56:37;102333;;;22.44;43.61
70198;BME280;57582;-34.876;138.628;2023-04-23T10:59:39;102333;;;22.39;43.39
70198;BME280;57582;-34.876;138.628;2023-04-23T11:02:43;102331;;;22.46;43.49
70198;BME280;57582;-34.876;138.628;2023-04-23T11:05:35;102339;;;22.13;43.25
70198;BME280;57582;-34.876;138.628;2023-04-23T11:08:35;102333;;;22.09;43.54
70198;BME280;57582;-34.876;138.628;2023-04-23T11:11:38;102336;;;22.23;43.25
70198;BME280;57582;-34.876;138.628;2023-04-23T11:14:51;102328;;;22.25;43.46
70198;BME280;57582;-34.876;138.628;2023-04-23T11:20:35;102342;;;22.07;43.75
70198;BME280;57582;-34.876;138.628;2023-04-23T11:23:35;102342;;;22.12;43.66
70198;BME280;57582;-34.876;138.628;2023-04-23T11:26:35;102334;;;22.10;43.87
70198;BME280;57582;-34.876;138.628;2023-04-23T11:29:35;102344;;;21.80;44.08
70198;BME280;57582;-34.876;138.628;2023-04-23T11:32:35;102346;;;21.70;44.26
70198;BME280;57582;-34.876;138.628;2023-04-23T11:35:35;102343;;;21.64;44.24
70198;BME280;57582;-34.876;138.628;2023-04-23T11:38:35;102339;;;21.17;45.31
70198;BME280;57582;-34.876;138.628;2023-04-23T11:41:35;102350;;;21.32;45.54
70198;BME280;57582;-34.876;138.628;2023-04-23T11:44:36;102346;;;21.54;45.20
70198;BME280;57582;-34.876;138.628;2023-04-23T11:47:35;102342;;;21.68;44.95
70198;BME280;57582;-34.876;138.628;2023-04-23T11:50:36;102346;;;21.85;44.61
70198;BME280;57582;-34.876;138.628;2023-04-23T11:53:35;102345;;;21.84;44.12
70198;BME280;57582;-34.876;138.628;2023-04-23T11:56:36;102341;;;21.90;44.11
70198;BME280;57582;-34.876;138.628;2023-04-23T11:59:35;102342;;;21.81;43.60
70198;BME280;57582;-34.876;138.628;2023-04-23T12:02:35;102350;;;21.56;44.24
70198;BME280;57582;-34.876;138.628;2023-04-23T12:05:38;102333;;;21.16;44.95
70198;BME280;57582;-34.876;138.628;2023-04-23T12:08:35;102340;;;20.92;45.45
70198;BME280;57582;-34.876;138.628;2023-04-23T12:11:35;102340;;;20.80;45.67
70198;BME280;57582;-34.876;138.628;2023-04-23T12:14:36;102341;;;20.31;46.61
70198;BME280;57582;-34.876;138.628;2023-04-23T12:17:35;102347;;;20.18;47.26
70198;BME280;57582;-34.876;138.628;2023-04-23T12:20:35;102341;;;19.94;47.73
70198;BME280;57582;-34.876;138.628;2023-04-23T12:23:35;102341;;;19.88;47.99
70198;BME280;57582;-34.876;138.628;2023-04-23T12:26:36;102341;;;19.72;48.33
70198;BME280;57582;-34.876;138.628;2023-04-23T12:29:35;102341;;;19.75;48.19
70198;BME280;57582;-34.876;138.628;2023-04-23T12:32:35;102334;;;19.61;48.50
70198;BME280;57582;-34.876;138.628;2023-04-23T12:35:43;102339;;;19.54;48.88
70198;BME280;57582;-34.876;138.628;2023-04-23T12:38:36;102333;;;19.54;48.74
70198;BME280;57582;-34.876;138.628;2023-04-23T12:41:35;102327;;;19.47;48.96
70198;BME280;57582;-34.876;138.628;2023-04-23T12:44:37;102329;;;19.45;48.85
70198;BME280;57582;-34.876;138.628;2023-04-23T12:47:35;102335;;;19.43;48.87
70198;BME280;57582;-34.876;138.628;2023-04-23T12:50:36;102332;;;19.47;48.53
70198;BME280;57582;-34.876;138.628;2023-04-23T12:53:35;102325;;;19.43;48.58
70198;BME280;57582;-34.876;138.628;2023-04-23T12:56:35;102328;;;19.35;48.57
70198;BME280;57582;-34.876;138.628;2023-04-23T12:59:35;102331;;;19.39;48.58
70198;BME280;57582;-34.876;138.628;2023-04-23T13:02:36;102325;;;19.31;48.36
70198;BME280;57582;-34.876;138.628;2023-04-23T13:05:35;102322;;;19.28;48.39
70198;BME280;57582;-34.876;138.628;2023-04-23T13:08:35;102319;;;19.28;48.16
70198;BME280;57582;-34.876;138.628;2023-04-23T13:11:37;102308;;;19.29;48.04
70198;BME280;57582;-34.876;138.628;2023-04-23T13:14:37;102310;;;19.34;47.97
70198;BME280;57582;-34.876;138.628;2023-04-23T13:17:35;102309;;;19.46;47.78
70198;BME280;57582;-34.876;138.628;2023-04-23T13:20:35;102298;;;19.38;47.32
70198;BME280;57582;-34.876;138.628;2023-04-23T13:23:35;102316;;;19.47;47.42
70198;BME280;57582;-34.876;138.628;2023-04-23T13:26:36;102309;;;19.45;47.43
70198;BME280;57582;-34.876;138.628;2023-04-23T13:29:35;102300;;;19.54;47.28
70198;BME280;57582;-34.876;138.628;2023-04-23T13:32:35;102297;;;19.75;46.80
70198;BME280;57582;-34.876;138.628;2023-04-23T13:35:35;102298;;;19.74;46.69
70198;BME280;57582;-34.876;138.628;2023-04-23T13:38:36;102293;;;19.79;46.65
70198;BME280;57582;-34.876;138.628;2023-04-23T13:41:35;102286;;;19.96;46.33
70198;BME280;57582;-34.876;138.628;2023-04-23T13:44:35;102290;;;20.18;46.04
70198;BME280;57582;-34.876;138.628;2023-04-23T13:47:35;102281;;;20.22;45.60
70198;BME280;57582;-34.876;138.628;2023-04-23T13:50:36;102284;;;20.01;45.82
70198;BME280;57582;-34.876;138.628;2023-04-23T13:53:35;102276;;;19.79;46.32
70198;BME280;57582;-34.876;138.628;2023-04-23T13:56:35;102278;;;19.77;46.43
70198;BME280;57582;-34.876;138.628;2023-04-23T13:59:35;102275;;;19.36;46.95
70198;BME280;57582;-34.876;138.628;2023-04-23T14:02:36;102275;;;19.20;47.61
70198;BME280;57582;-34.876;138.628;2023-04-23T14:05:35;102277;;;19.16;47.64
70198;BME280;57582;-34.876;138.628;2023-04-23T14:08:36;102273;;;19.09;47.67
70198;BME280;57582;-34.876;138.628;2023-04-23T14:11:35;102267;;;19.03;47.73
70198;BME280;57582;-34.876;138.628;2023-04-23T14:14:36;102276;;;19.04;47.85
70198;BME280;57582;-34.876;138.628;2023-04-23T14:17:36;102258;;;18.93;47.82
70198;BME280;57582;-34.876;138.628;2023-04-23T14:20:35;102264;;;18.84;48.22
70198;BME280;57582;-34.876;138.628;2023-04-23T14:26:36;102254;;;18.75;48.21
70198;BME280;57582;-34.876;138.628;2023-04-23T14:32:35;102254;;;18.71;48.28
70198;BME280;57582;-34.876;138.628;2023-04-23T14:35:35;102243;;;18.73;48.11
70198;BME280;57582;-34.876;138.628;2023-04-23T14:38:36;102250;;;18.72;48.33
70198;BME280;57582;-34.876;138.628;2023-04-23T14:41:35;102241;;;18.86;47.88
70198;BME280;57582;-34.876;138.628;2023-04-23T14:44:35;102245;;;18.84;47.89
70198;BME280;57582;-34.876;138.628;2023-04-23T14:47:35;102242;;;18.98;47.62
70198;BME280;57582;-34.876;138.628;2023-04-23T14:50:36;102244;;;18.93;47.46
70198;BME280;57582;-34.876;138.628;2023-04-23T14:53:35;102239;;;18.89;47.70
70198;BME280;57582;-34.876;138.628;2023-04-23T14:56:35;102239;;;19.01;47.32
70198;BME280;57582;-34.876;138.628;2023-04-23T14:59:35;102240;;;18.95;47.42
70198;BME280;57582;-34.876;138.628;2023-04-23T15:02:36;102240;;;18.89;47.63
70198;BME280;57582;-34.876;138.628;2023-04-23T15:05:37;102215;;;18.84;47.42
70198;BME280;57582;-34.876;138.628;2023-04-23T15:08:35;102231;;;19.13;47.28
70198;BME280;57582;-34.876;138.628;2023-04-23T15:11:35;102232;;;19.23;46.72
70198;BME280;57582;-34.876;138.628;2023-04-23T15:14:36;102224;;;19.31;46.77
70198;BME280;57582;-34.876;138.628;2023-04-23T15:17:35;102214;;;19.78;46.31
70198;BME280;57582;-34.876;138.628;2023-04-23T15:20:35;102216;;;19.95;45.54
70198;BME280;57582;-34.876;138.628;2023-04-23T15:23:35;102213;;;20.09;44.84
70198;BME280;57582;-34.876;138.628;2023-04-23T15:26:36;102210;;;20.04;44.85
70198;BME280;57582;-34.876;138.628;2023-04-23T15:29:35;102213;;;20.17;44.63
70198;BME280;57582;-34.876;138.628;2023-04-23T15:32:35;102211;;;20.03;44.80
70198;BME280;57582;-34.876;138.628;2023-04-23T15:35:35;102208;;;19.87;45.23
70198;BME280;57582;-34.876;138.628;2023-04-23T15:38:36;102209;;;20.26;44.51
70198;BME280;57582;-34.876;138.628;2023-04-23T15:41:35;102204;;;20.35;44.14
70198;BME280;57582;-34.876;138.628;2023-04-23T15:44:35;102208;;;20.55;43.92
70198;BME280;57582;-34.876;138.628;2023-04-23T15:47:35;102206;;;20.64;43.55
70198;BME280;57582;-34.876;138.628;2023-04-23T15:50:36;102203;;;20.88;43.28